sensor_id;sensor_type;location;lat;lon;timestamp;P1;durP1;ratioP1;P2;durP2;ratioP2
40122;SDS011;25832;45.490;4.912;2024-02-21T00:01:39;2.08;;;1.88;;
40122;SDS011;25832;45.490;4.912;2024-02-21T00:04:05;0.70;;;0.57;;
40122;SDS011;25832;45.490;4.912;2024-02-21T00:06:31;1.42;;;0.80;;
40122;SDS011;25832;45.490;4.912;2024-02-21T00:08:57;6.32;;;2.17;;
40122;SDS011;25832;45.490;4.912;2024-02-21T00:11:23;0.40;;;0.40;;
40122;SDS011;25832;45.490;4.912;2024-02-21T00:13:49;3.97;;;2.53;;
40122;SDS011;25832;45.490;4.912;2024-02-21T00:16:15;0.75;;;0.75;;
40122;SDS011;25832;45.490;4.912;2024-02-21T00:18:41;3.13;;;0.77;;
40122;SDS011;25832;45.490;4.912;2024-02-21T00:21:07;0.05;;;0.05;;
40122;SDS011;25832;45.490;4.912;2024-02-21T00:23:33;3.50;;;1.08;;
40122;SDS011;25832;45.490;4.912;2024-02-21T00:25:59;3.10;;;1.80;;
40122;SDS011;25832;45.490;4.912;2024-02-21T00:28:24;1.00;;;1.00;;
40122;SDS011;25832;45.490;4.912;2024-02-21T00:30:50;1.63;;;1.50;;
40122;SDS011;25832;45.490;4.912;2024-02-21T00:33:18;1.55;;;1.08;;
40122;SDS011;25832;45.490;4.912;2024-02-21T00:35:44;4.43;;;1.67;;
40122;SDS011;25832;45.490;4.912;2024-02-21T00:38:09;16.50;;;2.67;;
40122;SDS011;25832;45.490;4.912;2024-02-21T00:40:35;0.40;;;0.30;;
40122;SDS011;25832;45.490;4.912;2024-02-21T00:43:01;1.65;;;1.08;;
40122;SDS011;25832;45.490;4.912;2024-02-21T00:45:27;1.75;;;0.77;;
40122;SDS011;25832;45.490;4.912;2024-02-21T00:47:53;2.05;;;1.95;;
40122;SDS011;25832;45.490;4.912;2024-02-21T00:50:19;1.00;;;1.00;;
40122;SDS011;25832;45.490;4.912;2024-02-21T00:52:44;3.75;;;2.17;;
40122;SDS011;25832;45.490;4.912;2024-02-21T00:55:10;0.70;;;0.20;;
40122;SDS011;25832;45.490;4.912;2024-02-21T00:57:36;1.48;;;1.25;;
40122;SDS011;25832;45.490;4.912;2024-02-21T01:00:02;2.25;;;2.10;;
40122;SDS011;25832;45.490;4.912;2024-02-21T01:02:28;1.40;;;1.35;;
40122;SDS011;25832;45.490;4.912;2024-02-21T01:04:56;1.27;;;1.17;;
40122;SDS011;25832;45.490;4.912;2024-02-21T01:07:22;0.98;;;0.98;;
40122;SDS011;25832;45.490;4.912;2024-02-21T01:09:48;2.17;;;2.05;;
40122;SDS011;25832;45.490;4.912;2024-02-21T01:12:15;0.45;;;0.45;;
40122;SDS011;25832;45.490;4.912;2024-02-21T01:14:40;0.95;;;0.95;;
40122;SDS011;25832;45.490;4.912;2024-02-21T01:17:06;5.82;;;0.95;;
40122;SDS011;25832;45.490;4.912;2024-02-21T01:19:31;1.30;;;0.98;;
40122;SDS011;25832;45.490;4.912;2024-02-21T01:21:57;0.80;;;0.73;;
40122;SDS011;25832;45.490;4.912;2024-02-21T01:24:23;2.58;;;1.33;;
40122;SDS011;25832;45.490;4.912;2024-02-21T01:26:49;1.45;;;1.35;;
40122;SDS011;25832;45.490;4.912;2024-02-21T01:29:15;2.20;;;1.98;;
40122;SDS011;25832;45.490;4.912;2024-02-21T01:31:40;0.55;;;0.55;;
40122;SDS011;25832;45.490;4.912;2024-02-21T01:34:06;0.98;;;0.88;;
40122;SDS011;25832;45.490;4.912;2024-02-21T01:36:31;1.58;;;1.42;;
40122;SDS011;25832;45.490;4.912;2024-02-21T01:38:57;1.10;;;1.08;;
40122;SDS011;25832;45.490;4.912;2024-02-21T01:41:23;0.30;;;0.30;;
40122;SDS011;25832;45.490;4.912;2024-02-21T01:43:49;1.08;;;0.82;;
40122;SDS011;25832;45.490;4.912;2024-02-21T01:46:15;1.08;;;1.08;;
40122;SDS011;25832;45.490;4.912;2024-02-21T01:48:41;0.70;;;0.70;;
40122;SDS011;25832;45.490;4.912;2024-02-21T01:51:06;2.10;;;1.90;;
40122;SDS011;25832;45.490;4.912;2024-02-21T01:53:36;1.08;;;0.98;;
40122;SDS011;25832;45.490;4.912;2024-02-21T01:56:05;0.75;;;0.45;;
40122;SDS011;25832;45.490;4.912;2024-02-21T01:58:32;0.55;;;0.55;;
40122;SDS011;25832;45.490;4.912;2024-02-21T02:01:02;0.30;;;0.30;;
40122;SDS011;25832;45.490;4.912;2024-02-21T02:03:28;1.15;;;1.08;;
40122;SDS011;25832;45.490;4.912;2024-02-21T02:05:55;1.98;;;1.25;;
40122;SDS011;25832;45.490;4.912;2024-02-21T02:08:20;2.63;;;1.83;;
40122;SDS011;25832;45.490;4.912;2024-02-21T02:10:49;2.55;;;1.92;;
40122;SDS011;25832;45.490;4.912;2024-02-21T02:13:15;3.63;;;1.65;;
40122;SDS011;25832;45.490;4.912;2024-02-21T02:15:41;1.48;;;0.77;;
40122;SDS011;25832;45.490;4.912;2024-02-21T02:18:09;0.45;;;0.45;;
40122;SDS011;25832;45.490;4.912;2024-02-21T02:20:36;0.55;;;0.50;;
40122;SDS011;25832;45.490;4.912;2024-02-21T02:23:11;4.20;;;1.92;;
40122;SDS011;25832;45.490;4.912;2024-02-21T02:25:43;0.40;;;0.40;;
40122;SDS011;25832;45.490;4.912;2024-02-21T02:28:10;0.30;;;0.30;;
40122;SDS011;25832;45.490;4.912;2024-02-21T02:30:36;1.40;;;1.30;;
40122;SDS011;25832;45.490;4.912;2024-02-21T02:33:05;0.25;;;0.25;;
40122;SDS011;25832;45.490;4.912;2024-02-21T02:35:31;3.45;;;2.65;;
40122;SDS011;25832;45.490;4.912;2024-02-21T02:37:57;1.38;;;1.27;;
40122;SDS011;25832;45.490;4.912;2024-02-21T02:40:23;2.17;;;0.80;;
40122;SDS011;25832;45.490;4.912;2024-02-21T02:42:50;0.60;;;0.60;;
40122;SDS011;25832;45.490;4.912;2024-02-21T02:45:16;1.20;;;0.80;;
40122;SDS011;25832;45.490;4.912;2024-02-21T02:47:44;0.20;;;0.20;;
40122;SDS011;25832;45.490;4.912;2024-02-21T02:50:11;1.50;;;1.40;;
40122;SDS011;25832;45.490;4.912;2024-02-21T02:52:36;0.28;;;0.28;;
40122;SDS011;25832;45.490;4.912;2024-02-21T02:55:03;2.67;;;2.00;;
40122;SDS011;25832;45.490;4.912;2024-02-21T02:57:29;1.88;;;0.63;;
40122;SDS011;25832;45.490;4.912;2024-02-21T02:59:55;1.50;;;1.40;;
40122;SDS011;25832;45.490;4.912;2024-02-21T03:02:20;0.22;;;0.22;;
40122;SDS011;25832;45.490;4.912;2024-02-21T03:04:46;0.85;;;0.85;;
40122;SDS011;25832;45.490;4.912;2024-02-21T03:07:12;5.18;;;3.35;;
40122;SDS011;25832;45.490;4.912;2024-02-21T03:09:38;1.27;;;1.02;;
40122;SDS011;25832;45.490;4.912;2024-02-21T03:12:05;1.08;;;0.73;;
40122;SDS011;25832;45.490;4.912;2024-02-21T03:14:31;1.02;;;0.85;;
40122;SDS011;25832;45.490;4.912;2024-02-21T03:16:58;16.90;;;3.63;;
40122;SDS011;25832;45.490;4.912;2024-02-21T03:19:24;1.00;;;0.77;;
40122;SDS011;25832;45.490;4.912;2024-02-21T03:21:50;1.98;;;1.85;;
40122;SDS011;25832;45.490;4.912;2024-02-21T03:24:16;1.10;;;1.02;;
40122;SDS011;25832;45.490;4.912;2024-02-21T03:26:42;4.03;;;1.88;;
40122;SDS011;25832;45.490;4.912;2024-02-21T03:29:08;2.00;;;0.93;;
40122;SDS011;25832;45.490;4.912;2024-02-21T03:31:34;0.30;;;0.30;;
40122;SDS011;25832;45.490;4.912;2024-02-21T03:34:00;2.92;;;0.82;;
40122;SDS011;25832;45.490;4.912;2024-02-21T03:36:25;3.40;;;1.80;;
40122;SDS011;25832;45.490;4.912;2024-02-21T03:38:51;2.00;;;1.70;;
40122;SDS011;25832;45.490;4.912;2024-02-21T03:41:17;0.47;;;0.47;;
40122;SDS011;25832;45.490;4.912;2024-02-21T03:43:42;1.23;;;0.47;;
40122;SDS011;25832;45.490;4.912;2024-02-21T03:46:08;1.88;;;1.75;;
40122;SDS011;25832;45.490;4.912;2024-02-21T03:48:34;0.10;;;0.10;;
40122;SDS011;25832;45.490;4.912;2024-02-21T03:50:59;0.10;;;0.10;;
40122;SDS011;25832;45.490;4.912;2024-02-21T03:53:25;0.80;;;0.80;;
40122;SDS011;25832;45.490;4.912;2024-02-21T03:55:50;1.38;;;1.38;;
40122;SDS011;25832;45.490;4.912;2024-02-21T03:58:16;0.68;;;0.68;;
40122;SDS011;25832;45.490;4.912;2024-02-21T04:00:41;0.93;;;0.93;;
40122;SDS011;25832;45.490;4.912;2024-02-21T04:03:07;1.92;;;0.22;;
40122;SDS011;25832;45.490;4.912;2024-02-21T04:05:33;2.20;;;1.30;;
40122;SDS011;25832;45.490;4.912;2024-02-21T04:07:58;0.60;;;0.52;;
40122;SDS011;25832;45.490;4.912;2024-02-21T04:10:24;0.47;;;0.47;;
40122;SDS011;25832;45.490;4.912;2024-02-21T04:12:50;0.95;;;0.95;;
40122;SDS011;25832;45.490;4.912;2024-02-21T04:15:16;0.25;;;0.25;;
40122;SDS011;25832;45.490;4.912;2024-02-21T04:17:42;2.25;;;2.05;;
40122;SDS011;25832;45.490;4.912;2024-02-21T04:20:13;1.05;;;0.73;;
40122;SDS011;25832;45.490;4.912;2024-02-21T04:22:39;0.75;;;0.73;;
40122;SDS011;25832;45.490;4.912;2024-02-21T04:25:05;0.40;;;0.40;;
40122;SDS011;25832;45.490;4.912;2024-02-21T04:27:31;0.00;;;0.00;;
40122;SDS011;25832;45.490;4.912;2024-02-21T04:29:57;0.38;;;0.38;;
40122;SDS011;25832;45.490;4.912;2024-02-21T04:32:23;0.05;;;0.05;;
40122;SDS011;25832;45.490;4.912;2024-02-21T04:34:48;0.57;;;0.38;;
40122;SDS011;25832;45.490;4.912;2024-02-21T04:37:14;2.63;;;0.30;;
40122;SDS011;25832;45.490;4.912;2024-02-21T04:39:39;2.13;;;0.85;;
40122;SDS011;25832;45.490;4.912;2024-02-21T04:42:05;1.70;;;1.60;;
40122;SDS011;25832;45.490;4.912;2024-02-21T04:44:31;0.75;;;0.30;;
40122;SDS011;25832;45.490;4.912;2024-02-21T04:46:57;2.30;;;0.70;;
40122;SDS011;25832;45.490;4.912;2024-02-21T04:49:23;1.10;;;0.93;;
40122;SDS011;25832;45.490;4.912;2024-02-21T04:51:49;1.52;;;1.42;;
40122;SDS011;25832;45.490;4.912;2024-02-21T04:54:14;4.55;;;3.65;;
40122;SDS011;25832;45.490;4.912;2024-02-21T04:56:40;1.92;;;1.42;;
40122;SDS011;25832;45.490;4.912;2024-02-21T04:59:05;0.90;;;0.85;;
40122;SDS011;25832;45.490;4.912;2024-02-21T05:01:31;1.20;;;0.82;;
40122;SDS011;25832;45.490;4.912;2024-02-21T05:03:57;3.50;;;1.33;;
40122;SDS011;25832;45.490;4.912;2024-02-21T05:06:22;2.92;;;2.63;;
40122;SDS011;25832;45.490;4.912;2024-02-21T05:08:48;2.33;;;1.77;;
40122;SDS011;25832;45.490;4.912;2024-02-21T05:11:14;1.63;;;1.52;;
40122;SDS011;25832;45.490;4.912;2024-02-21T05:13:39;1.30;;;1.30;;
40122;SDS011;25832;45.490;4.912;2024-02-21T05:16:06;0.73;;;0.73;;
40122;SDS011;25832;45.490;4.912;2024-02-21T05:18:32;1.02;;;1.02;;
40122;SDS011;25832;45.490;4.912;2024-02-21T05:20:58;2.92;;;2.63;;
40122;SDS011;25832;45.490;4.912;2024-02-21T05:23:24;1.33;;;1.02;;
40122;SDS011;25832;45.490;4.912;2024-02-21T05:25:50;1.45;;;1.35;;
40122;SDS011;25832;45.490;4.912;2024-02-21T05:28:16;2.13;;;1.65;;
40122;SDS011;25832;45.490;4.912;2024-02-21T05:30:42;0.95;;;0.95;;
40122;SDS011;25832;45.490;4.912;2024-02-21T05:33:08;1.92;;;1.63;;
40122;SDS011;25832;45.490;4.912;2024-02-21T05:35:34;1.45;;;1.00;;
40122;SDS011;25832;45.490;4.912;2024-02-21T05:38:01;7.50;;;2.85;;
40122;SDS011;25832;45.490;4.912;2024-02-21T05:40:31;1.30;;;1.25;;
40122;SDS011;25832;45.490;4.912;2024-02-21T05:42:57;2.25;;;1.90;;
40122;SDS011;25832;45.490;4.912;2024-02-21T05:45:22;0.88;;;0.77;;
40122;SDS011;25832;45.490;4.912;2024-02-21T05:47:48;1.95;;;1.45;;
40122;SDS011;25832;45.490;4.912;2024-02-21T05:50:15;1.85;;;1.75;;
40122;SDS011;25832;45.490;4.912;2024-02-21T05:52:40;2.20;;;1.13;;
40122;SDS011;25832;45.490;4.912;2024-02-21T05:55:06;0.17;;;0.17;;
40122;SDS011;25832;45.490;4.912;2024-02-21T05:57:33;1.30;;;0.75;;
40122;SDS011;25832;45.490;4.912;2024-02-21T05:59:59;0.28;;;0.28;;
40122;SDS011;25832;45.490;4.912;2024-02-21T06:02:25;0.70;;;0.70;;
40122;SDS011;25832;45.490;4.912;2024-02-21T06:04:50;2.58;;;1.60;;
40122;SDS011;25832;45.490;4.912;2024-02-21T06:07:16;9.45;;;0.63;;
40122;SDS011;25832;45.490;4.912;2024-02-21T06:09:41;1.38;;;0.63;;
40122;SDS011;25832;45.490;4.912;2024-02-21T06:12:07;1.08;;;0.73;;
40122;SDS011;25832;45.490;4.912;2024-02-21T06:14:33;0.65;;;0.65;;
40122;SDS011;25832;45.490;4.912;2024-02-21T06:16:58;1.30;;;1.10;;
40122;SDS011;25832;45.490;4.912;2024-02-21T06:19:24;0.52;;;0.47;;
40122;SDS011;25832;45.490;4.912;2024-02-21T06:21:49;1.27;;;1.17;;
40122;SDS011;25832;45.490;4.912;2024-02-21T06:24:15;0.75;;;0.75;;
40122;SDS011;25832;45.490;4.912;2024-02-21T06:26:41;0.68;;;0.68;;
40122;SDS011;25832;45.490;4.912;2024-02-21T06:29:06;0.77;;;0.77;;
40122;SDS011;25832;45.490;4.912;2024-02-21T06:31:32;1.08;;;1.08;;
40122;SDS011;25832;45.490;4.912;2024-02-21T06:33:57;2.13;;;1.17;;
40122;SDS011;25832;45.490;4.912;2024-02-21T06:36:23;1.50;;;1.27;;
40122;SDS011;25832;45.490;4.912;2024-02-21T06:38:49;0.57;;;0.57;;
40122;SDS011;25832;45.490;4.912;2024-02-21T06:41:15;2.22;;;1.13;;
40122;SDS011;25832;45.490;4.912;2024-02-21T06:43:41;1.48;;;1.00;;
40122;SDS011;25832;45.490;4.912;2024-02-21T06:46:07;0.52;;;0.52;;
40122;SDS011;25832;45.490;4.912;2024-02-21T06:48:32;1.02;;;1.02;;
40122;SDS011;25832;45.490;4.912;2024-02-21T06:50:58;3.35;;;2.63;;
40122;SDS011;25832;45.490;4.912;2024-02-21T06:53:24;1.90;;;1.80;;
40122;SDS011;25832;45.490;4.912;2024-02-21T06:55:49;1.20;;;0.55;;
40122;SDS011;25832;45.490;4.912;2024-02-21T06:58:15;2.70;;;1.45;;
40122;SDS011;25832;45.490;4.912;2024-02-21T07:00:42;1.08;;;1.00;;
40122;SDS011;25832;45.490;4.912;2024-02-21T07:03:08;1.85;;;1.55;;
40122;SDS011;25832;45.490;4.912;2024-02-21T07:05:33;0.47;;;0.47;;
40122;SDS011;25832;45.490;4.912;2024-02-21T07:07:59;2.47;;;1.67;;
40122;SDS011;25832;45.490;4.912;2024-02-21T07:10:25;1.98;;;1.08;;
40122;SDS011;25832;45.490;4.912;2024-02-21T07:12:50;0.65;;;0.65;;
40122;SDS011;25832;45.490;4.912;2024-02-21T07:15:17;0.45;;;0.45;;
40122;SDS011;25832;45.490;4.912;2024-02-21T07:17:43;2.28;;;1.20;;
40122;SDS011;25832;45.490;4.912;2024-02-21T07:20:09;4.35;;;1.60;;
40122;SDS011;25832;45.490;4.912;2024-02-21T07:22:34;1.23;;;1.13;;
40122;SDS011;25832;45.490;4.912;2024-02-21T07:25:01;2.00;;;1.45;;
40122;SDS011;25832;45.490;4.912;2024-02-21T07:27:26;3.00;;;1.98;;
40122;SDS011;25832;45.490;4.912;2024-02-21T07:29:53;1.65;;;1.25;;
40122;SDS011;25832;45.490;4.912;2024-02-21T07:32:19;0.88;;;0.88;;
40122;SDS011;25832;45.490;4.912;2024-02-21T07:34:44;1.50;;;1.40;;
40122;SDS011;25832;45.490;4.912;2024-02-21T07:37:10;0.40;;;0.40;;
40122;SDS011;25832;45.490;4.912;2024-02-21T07:39:36;0.20;;;0.20;;
40122;SDS011;25832;45.490;4.912;2024-02-21T07:42:05;2.65;;;1.50;;
40122;SDS011;25832;45.490;4.912;2024-02-21T07:44:31;0.55;;;0.50;;
40122;SDS011;25832;45.490;4.912;2024-02-21T07:46:57;7.97;;;2.13;;
40122;SDS011;25832;45.490;4.912;2024-02-21T07:49:23;0.30;;;0.30;;
40122;SDS011;25832;45.490;4.912;2024-02-21T07:51:49;0.98;;;0.63;;
40122;SDS011;25832;45.490;4.912;2024-02-21T07:54:15;1.75;;;1.65;;
40122;SDS011;25832;45.490;4.912;2024-02-21T07:56:41;0.77;;;0.77;;
40122;SDS011;25832;45.490;4.912;2024-02-21T07:59:06;0.85;;;0.85;;
40122;SDS011;25832;45.490;4.912;2024-02-21T08:01:32;6.93;;;2.85;;
40122;SDS011;25832;45.490;4.912;2024-02-21T08:03:58;3.10;;;1.25;;
40122;SDS011;25832;45.490;4.912;2024-02-21T08:06:24;1.23;;;0.82;;
40122;SDS011;25832;45.490;4.912;2024-02-21T08:08:50;1.10;;;0.85;;
40122;SDS011;25832;45.490;4.912;2024-02-21T08:11:15;0.68;;;0.68;;
40122;SDS011;25832;45.490;4.912;2024-02-21T08:13:41;3.30;;;2.10;;
40122;SDS011;25832;45.490;4.912;2024-02-21T08:16:07;0.30;;;0.30;;
40122;SDS011;25832;45.490;4.912;2024-02-21T08:18:32;0.95;;;0.95;;
40122;SDS011;25832;45.490;4.912;2024-02-21T08:21:01;1.17;;;0.70;;
40122;SDS011;25832;45.490;4.912;2024-02-21T08:23:28;2.55;;;0.35;;
40122;SDS011;25832;45.490;4.912;2024-02-21T08:25:53;1.30;;;0.80;;
40122;SDS011;25832;45.490;4.912;2024-02-21T08:28:19;1.38;;;1.05;;
40122;SDS011;25832;45.490;4.912;2024-02-21T08:30:45;1.73;;;0.95;;
40122;SDS011;25832;45.490;4.912;2024-02-21T08:33:13;0.17;;;0.08;;
40122;SDS011;25832;45.490;4.912;2024-02-21T08:35:42;2.05;;;0.60;;
40122;SDS011;25832;45.490;4.912;2024-02-21T08:38:08;0.55;;;0.50;;
40122;SDS011;25832;45.490;4.912;2024-02-21T08:40:33;3.15;;;2.85;;
40122;SDS011;25832;45.490;4.912;2024-02-21T08:43:00;1.00;;;0.88;;
40122;SDS011;25832;45.490;4.912;2024-02-21T08:45:26;0.68;;;0.68;;
40122;SDS011;25832;45.490;4.912;2024-02-21T08:47:51;8.32;;;2.22;;
40122;SDS011;25832;45.490;4.912;2024-02-21T08:50:17;25.40;;;14.88;;
40122;SDS011;25832;45.490;4.912;2024-02-21T08:52:43;22.35;;;17.17;;
40122;SDS011;25832;45.490;4.912;2024-02-21T08:55:09;25.08;;;19.70;;
40122;SDS011;25832;45.490;4.912;2024-02-21T08:57:34;43.45;;;19.67;;
40122;SDS011;25832;45.490;4.912;2024-02-21T09:00:03;3.22;;;2.95;;
40122;SDS011;25832;45.490;4.912;2024-02-21T09:02:35;3.13;;;0.90;;
40122;SDS011;25832;45.490;4.912;2024-02-21T09:05:02;1.63;;;1.33;;
40122;SDS011;25832;45.490;4.912;2024-02-21T09:07:31;2.80;;;1.05;;
40122;SDS011;25832;45.490;4.912;2024-02-21T09:09:57;0.82;;;0.82;;
40122;SDS011;25832;45.490;4.912;2024-02-21T09:12:22;1.05;;;0.80;;
40122;SDS011;25832;45.490;4.912;2024-02-21T09:14:48;0.85;;;0.38;;
40122;SDS011;25832;45.490;4.912;2024-02-21T09:17:15;5.47;;;2.08;;
40122;SDS011;25832;45.490;4.912;2024-02-21T09:19:42;0.60;;;0.47;;
40122;SDS011;25832;45.490;4.912;2024-02-21T09:22:09;1.88;;;0.68;;
40122;SDS011;25832;45.490;4.912;2024-02-21T09:24:34;1.45;;;1.13;;
40122;SDS011;25832;45.490;4.912;2024-02-21T09:27:00;1.02;;;0.95;;
40122;SDS011;25832;45.490;4.912;2024-02-21T09:29:26;0.40;;;0.40;;
40122;SDS011;25832;45.490;4.912;2024-02-21T09:31:51;1.15;;;1.15;;
40122;SDS011;25832;45.490;4.912;2024-02-21T09:34:17;0.65;;;0.65;;
40122;SDS011;25832;45.490;4.912;2024-02-21T09:36:43;1.60;;;1.25;;
40122;SDS011;25832;45.490;4.912;2024-02-21T09:39:09;2.05;;;1.10;;
40122;SDS011;25832;45.490;4.912;2024-02-21T09:41:39;0.80;;;0.80;;
40122;SDS011;25832;45.490;4.912;2024-02-21T09:44:18;0.93;;;0.93;;
40122;SDS011;25832;45.490;4.912;2024-02-21T09:49:35;0.65;;;0.47;;
40122;SDS011;25832;45.490;4.912;2024-02-21T09:52:04;0.90;;;0.90;;
40122;SDS011;25832;45.490;4.912;2024-02-21T09:54:32;1.20;;;1.02;;
40122;SDS011;25832;45.490;4.912;2024-02-21T09:57:05;0.73;;;0.73;;
40122;SDS011;25832;45.490;4.912;2024-02-21T09:59:31;3.72;;;0.77;;
40122;SDS011;25832;45.490;4.912;2024-02-21T10:01:57;5.20;;;2.08;;
40122;SDS011;25832;45.490;4.912;2024-02-21T10:04:26;3.00;;;2.00;;
40122;SDS011;25832;45.490;4.912;2024-02-21T10:06:55;6.20;;;1.50;;
40122;SDS011;25832;45.490;4.912;2024-02-21T10:09:22;1.55;;;1.25;;
40122;SDS011;25832;45.490;4.912;2024-02-21T10:11:48;1.23;;;1.23;;
40122;SDS011;25832;45.490;4.912;2024-02-21T10:14:15;2.25;;;1.75;;
40122;SDS011;25832;45.490;4.912;2024-02-21T10:16:41;0.50;;;0.50;;
40122;SDS011;25832;45.490;4.912;2024-02-21T10:19:15;1.27;;;0.60;;
40122;SDS011;25832;45.490;4.912;2024-02-21T10:21:44;1.90;;;1.65;;
40122;SDS011;25832;45.490;4.912;2024-02-21T10:24:26;1.05;;;0.57;;
40122;SDS011;25832;45.490;4.912;2024-02-21T10:27:02;3.20;;;0.65;;
40122;SDS011;25832;45.490;4.912;2024-02-21T10:29:35;2.97;;;1.50;;
40122;SDS011;25832;45.490;4.912;2024-02-21T10:32:11;1.17;;;0.95;;
40122;SDS011;25832;45.490;4.912;2024-02-21T10:34:40;3.42;;;1.38;;
40122;SDS011;25832;45.490;4.912;2024-02-21T10:37:07;2.83;;;1.42;;
40122;SDS011;25832;45.490;4.912;2024-02-21T10:39:36;1.85;;;1.33;;
40122;SDS011;25832;45.490;4.912;2024-02-21T10:42:06;2.28;;;2.08;;
40122;SDS011;25832;45.490;4.912;2024-02-21T10:44:33;0.55;;;0.55;;
40122;SDS011;25832;45.490;4.912;2024-02-21T10:47:07;6.05;;;2.28;;
40122;SDS011;25832;45.490;4.912;2024-02-21T10:57:08;2.50;;;1.15;;
40122;SDS011;25832;45.490;4.912;2024-02-21T10:59:37;3.47;;;1.45;;
40122;SDS011;25832;45.490;4.912;2024-02-21T11:02:04;0.85;;;0.55;;
40122;SDS011;25832;45.490;4.912;2024-02-21T11:04:30;0.93;;;0.88;;
40122;SDS011;25832;45.490;4.912;2024-02-21T11:06:57;1.85;;;1.55;;
40122;SDS011;25832;45.490;4.912;2024-02-21T11:09:29;0.52;;;0.52;;
40122;SDS011;25832;45.490;4.912;2024-02-21T11:11:58;3.40;;;1.88;;
40122;SDS011;25832;45.490;4.912;2024-02-21T11:14:29;4.57;;;0.30;;
40122;SDS011;25832;45.490;4.912;2024-02-21T11:17:00;0.73;;;0.73;;
40122;SDS011;25832;45.490;4.912;2024-02-21T11:19:27;2.35;;;1.25;;
40122;SDS011;25832;45.490;4.912;2024-02-21T11:21:54;1.45;;;1.38;;
40122;SDS011;25832;45.490;4.912;2024-02-21T11:27:09;1.35;;;1.25;;
40122;SDS011;25832;45.490;4.912;2024-02-21T11:32:30;0.60;;;0.60;;
40122;SDS011;25832;45.490;4.912;2024-02-21T11:34:56;0.38;;;0.38;;
40122;SDS011;25832;45.490;4.912;2024-02-21T11:37:32;1.00;;;0.90;;
40122;SDS011;25832;45.490;4.912;2024-02-21T11:40:01;0.60;;;0.60;;
40122;SDS011;25832;45.490;4.912;2024-02-21T11:42:28;0.55;;;0.52;;
40122;SDS011;25832;45.490;4.912;2024-02-21T11:44:55;13.05;;;0.90;;
40122;SDS011;25832;45.490;4.912;2024-02-21T11:47:22;3.45;;;0.93;;
40122;SDS011;25832;45.490;4.912;2024-02-21T11:49:48;0.80;;;0.80;;
40122;SDS011;25832;45.490;4.912;2024-02-21T11:52:18;4.50;;;1.17;;
40122;SDS011;25832;45.490;4.912;2024-02-21T11:54:47;0.60;;;0.38;;
40122;SDS011;25832;45.490;4.912;2024-02-21T11:57:13;0.25;;;0.25;;
40122;SDS011;25832;45.490;4.912;2024-02-21T11:59:42;0.28;;;0.20;;
40122;SDS011;25832;45.490;4.912;2024-02-21T12:02:09;0.35;;;0.30;;
40122;SDS011;25832;45.490;4.912;2024-02-21T12:04:35;1.25;;;1.15;;
40122;SDS011;25832;45.490;4.912;2024-02-21T12:07:01;0.32;;;0.32;;
40122;SDS011;25832;45.490;4.912;2024-02-21T12:09:29;0.68;;;0.68;;
40122;SDS011;25832;45.490;4.912;2024-02-21T12:11:59;0.47;;;0.47;;
40122;SDS011;25832;45.490;4.912;2024-02-21T12:14:29;2.08;;;1.70;;
40122;SDS011;25832;45.490;4.912;2024-02-21T12:16:55;1.65;;;1.55;;
40122;SDS011;25832;45.490;4.912;2024-02-21T12:19:21;0.30;;;0.30;;
40122;SDS011;25832;45.490;4.912;2024-02-21T12:21:47;0.10;;;0.10;;
40122;SDS011;25832;45.490;4.912;2024-02-21T12:24:21;1.35;;;1.25;;
40122;SDS011;25832;45.490;4.912;2024-02-21T12:26:48;0.43;;;0.43;;
40122;SDS011;25832;45.490;4.912;2024-02-21T12:29:14;1.35;;;1.17;;
40122;SDS011;25832;45.490;4.912;2024-02-21T12:31:40;0.10;;;0.10;;
40122;SDS011;25832;45.490;4.912;2024-02-21T12:34:05;0.77;;;0.77;;
40122;SDS011;25832;45.490;4.912;2024-02-21T12:36:32;0.55;;;0.50;;
40122;SDS011;25832;45.490;4.912;2024-02-21T12:38:58;2.22;;;1.25;;
40122;SDS011;25832;45.490;4.912;2024-02-21T12:41:24;0.52;;;0.52;;
40122;SDS011;25832;45.490;4.912;2024-02-21T12:43:53;0.65;;;0.45;;
40122;SDS011;25832;45.490;4.912;2024-02-21T12:46:19;0.85;;;0.85;;
40122;SDS011;25832;45.490;4.912;2024-02-21T12:48:44;0.52;;;0.52;;
40122;SDS011;25832;45.490;4.912;2024-02-21T12:51:10;1.80;;;0.63;;
40122;SDS011;25832;45.490;4.912;2024-02-21T12:53:36;0.47;;;0.40;;
40122;SDS011;25832;45.490;4.912;2024-02-21T12:56:01;0.35;;;0.35;;
40122;SDS011;25832;45.490;4.912;2024-02-21T12:58:27;1.95;;;1.25;;
40122;SDS011;25832;45.490;4.912;2024-02-21T13:00:56;1.83;;;0.73;;
40122;SDS011;25832;45.490;4.912;2024-02-21T13:03:22;0.50;;;0.50;;
40122;SDS011;25832;45.490;4.912;2024-02-21T13:05:48;3.30;;;0.80;;
40122;SDS011;25832;45.490;4.912;2024-02-21T13:08:13;10.63;;;0.73;;
40122;SDS011;25832;45.490;4.912;2024-02-21T13:10:39;5.47;;;2.50;;
40122;SDS011;25832;45.490;4.912;2024-02-21T13:13:05;6.90;;;4.82;;
40122;SDS011;25832;45.490;4.912;2024-02-21T13:15:30;2.17;;;1.08;;
40122;SDS011;25832;45.490;4.912;2024-02-21T13:17:56;3.25;;;1.30;;
40122;SDS011;25832;45.490;4.912;2024-02-21T13:20:25;3.55;;;1.60;;
40122;SDS011;25832;45.490;4.912;2024-02-21T13:22:51;12.38;;;6.40;;
40122;SDS011;25832;45.490;4.912;2024-02-21T13:25:17;10.65;;;4.72;;
40122;SDS011;25832;45.490;4.912;2024-02-21T13:27:45;5.95;;;3.10;;
40122;SDS011;25832;45.490;4.912;2024-02-21T13:30:12;17.40;;;5.60;;
40122;SDS011;25832;45.490;4.912;2024-02-21T13:32:40;4.03;;;2.50;;
40122;SDS011;25832;45.490;4.912;2024-02-21T13:37:37;0.70;;;0.60;;
40122;SDS011;25832;45.490;4.912;2024-02-21T13:40:04;7.53;;;1.88;;
40122;SDS011;25832;45.490;4.912;2024-02-21T13:42:30;8.30;;;2.42;;
40122;SDS011;25832;45.490;4.912;2024-02-21T13:44:56;2.10;;;1.83;;
40122;SDS011;25832;45.490;4.912;2024-02-21T13:47:21;5.30;;;2.60;;
40122;SDS011;25832;45.490;4.912;2024-02-21T13:49:47;3.30;;;0.88;;
40122;SDS011;25832;45.490;4.912;2024-02-21T13:52:13;2.53;;;2.20;;
40122;SDS011;25832;45.490;4.912;2024-02-21T13:54:39;7.10;;;1.75;;
40122;SDS011;25832;45.490;4.912;2024-02-21T13:57:05;2.97;;;0.80;;
40122;SDS011;25832;45.490;4.912;2024-02-21T13:59:31;11.00;;;5.38;;
40122;SDS011;25832;45.490;4.912;2024-02-21T14:01:58;11.40;;;6.80;;
40122;SDS011;25832;45.490;4.912;2024-02-21T14:04:24;10.70;;;6.47;;
40122;SDS011;25832;45.490;4.912;2024-02-21T14:06:50;24.60;;;14.55;;
40122;SDS011;25832;45.490;4.912;2024-02-21T14:09:16;30.20;;;18.13;;
40122;SDS011;25832;45.490;4.912;2024-02-21T14:11:41;5.70;;;3.03;;
40122;SDS011;25832;45.490;4.912;2024-02-21T14:14:07;5.90;;;1.83;;
40122;SDS011;25832;45.490;4.912;2024-02-21T14:16:33;4.57;;;2.92;;
40122;SDS011;25832;45.490;4.912;2024-02-21T14:18:59;28.08;;;12.32;;
40122;SDS011;25832;45.490;4.912;2024-02-21T14:21:24;9.23;;;6.38;;
40122;SDS011;25832;45.490;4.912;2024-02-21T14:23:50;3.10;;;1.65;;
40122;SDS011;25832;45.490;4.912;2024-02-21T14:26:17;1.25;;;1.15;;
40122;SDS011;25832;45.490;4.912;2024-02-21T14:28:43;11.02;;;6.43;;
40122;SDS011;25832;45.490;4.912;2024-02-21T14:31:09;13.38;;;8.27;;
40122;SDS011;25832;45.490;4.912;2024-02-21T14:33:35;8.98;;;4.35;;
40122;SDS011;25832;45.490;4.912;2024-02-21T14:36:01;6.10;;;3.28;;
40122;SDS011;25832;45.490;4.912;2024-02-21T14:38:27;5.45;;;3.50;;
40122;SDS011;25832;45.490;4.912;2024-02-21T14:40:53;2.17;;;1.58;;
40122;SDS011;25832;45.490;4.912;2024-02-21T14:43:19;3.10;;;2.47;;
40122;SDS011;25832;45.490;4.912;2024-02-21T14:45:46;7.55;;;6.05;;
40122;SDS011;25832;45.490;4.912;2024-02-21T14:48:12;5.35;;;1.90;;
40122;SDS011;25832;45.490;4.912;2024-02-21T14:50:38;13.52;;;4.45;;
40122;SDS011;25832;45.490;4.912;2024-02-21T14:53:04;4.30;;;2.00;;
40122;SDS011;25832;45.490;4.912;2024-02-21T14:55:30;10.73;;;4.50;;
40122;SDS011;25832;45.490;4.912;2024-02-21T14:57:55;1.38;;;0.65;;
40122;SDS011;25832;45.490;4.912;2024-02-21T15:00:21;5.68;;;1.98;;